Cairo, Oregon
Current Conditions -  °F | °C
As of 2:53 AM on Monday 26 Jan 2015 (Local Time) from KONO Reporting Station
Overcast Overcast  
Wind Chill: 29°   Ceiling: 900
Heat Index: 34°   Visibility: 7mi
Dew Point: 31°   Wind: 6mph
Humidity: 89%   Direction: 360°N
Pressure: 30.44"   Gusts: NA
Location:  44.0817°N, 117.014°W
Report Text: KONO 260953Z AUTO 36005KT 7SM OVC009 01/M01 A3044 RMK AO2 SLP327 T00111006
Loading
Personal Weather Stations






























Interactive Weather Map New forecast layout! Learn more

10-Day Weather Forecast

Advertisements
Track Severe Weather on mobile